createdAt,value
2019-01-03T00:01:46.682Z,10.70
2019-01-03T00:04:16.443Z,8.20
2019-01-03T00:06:50.779Z,9.23
2019-01-03T00:09:24.615Z,9.30
2019-01-03T00:11:54.987Z,10.27
2019-01-03T00:14:23.854Z,8.98
2019-01-03T00:16:54.557Z,7.37
2019-01-03T00:19:23.389Z,7.23
2019-01-03T00:21:54.078Z,8.07
2019-01-03T00:24:25.536Z,7.50
2019-01-03T00:26:54.372Z,8.57
2019-01-03T00:29:25.065Z,10.60
2019-01-03T00:31:59.429Z,8.23
2019-01-03T00:34:33.201Z,7.62
2019-01-03T00:37:03.569Z,6.13
2019-01-03T00:39:33.312Z,7.83
2019-01-03T00:42:02.166Z,7.07
2019-01-03T00:44:36.478Z,9.43
2019-01-03T00:47:07.149Z,11.10
2019-01-03T00:49:36.891Z,9.83
2019-01-03T00:52:05.720Z,6.80
2019-01-03T00:54:36.382Z,7.43
2019-01-03T00:57:06.181Z,6.40
2019-01-03T00:59:37.743Z,7.30
2019-01-03T01:02:11.447Z,7.80
2019-01-03T01:04:46.010Z,9.60
2019-01-03T01:07:20.374Z,7.83
2019-01-03T01:09:49.281Z,8.65
2019-01-03T01:12:20.994Z,8.40
2019-01-03T01:14:52.628Z,7.35
2019-01-03T01:17:21.464Z,9.20
2019-01-03T01:19:55.882Z,8.50
2019-01-03T01:22:24.712Z,9.37
2019-01-03T01:24:57.298Z,9.33
2019-01-03T01:27:31.568Z,10.30
2019-01-03T01:30:06.302Z,9.43
2019-01-03T01:32:41.450Z,7.13
2019-01-03T01:35:15.244Z,8.67
2019-01-03T01:37:49.696Z,9.50
2019-01-03T01:40:18.528Z,8.97
2019-01-03T01:42:52.309Z,6.33
2019-01-03T01:45:21.143Z,6.00
2019-01-03T01:47:55.695Z,10.60
2019-01-03T01:50:30.250Z,10.30
2019-01-03T01:53:00.679Z,9.80
2019-01-03T01:55:32.380Z,7.77
2019-01-03T01:58:03.143Z,9.00
2019-01-03T02:00:35.786Z,9.00
2019-01-03T02:03:04.617Z,9.00
2019-01-03T02:05:34.407Z,7.63
2019-01-03T02:08:03.798Z,8.80
2019-01-03T02:10:32.680Z,6.57
2019-01-03T02:13:01.520Z,8.73
2019-01-03T02:15:31.171Z,7.20
2019-01-03T02:18:02.880Z,9.63
2019-01-03T02:20:38.496Z,8.57
2019-01-03T02:23:13.605Z,10.23
2019-01-03T02:25:43.215Z,11.60
2019-01-03T02:28:13.978Z,6.87
2019-01-03T02:30:47.587Z,12.27
2019-01-03T02:33:18.323Z,8.77
2019-01-03T02:35:48.953Z,12.10
2019-01-03T02:38:17.945Z,9.87
2019-01-03T02:40:46.663Z,8.73
2019-01-03T02:43:16.433Z,10.05
2019-01-03T02:45:51.031Z,9.23
2019-01-03T02:48:20.596Z,9.55
2019-01-03T02:50:49.532Z,7.90
2019-01-03T02:53:19.248Z,9.40
2019-01-03T02:55:52.730Z,7.03
2019-01-03T02:58:27.220Z,7.35
2019-01-03T03:00:56.790Z,8.97
2019-01-03T03:03:27.181Z,7.87
2019-01-03T03:05:56.935Z,7.87
2019-01-03T03:08:28.507Z,7.93
2019-01-03T03:10:57.335Z,6.73
2019-01-03T03:13:27.972Z,7.97
2019-01-03T03:15:57.720Z,7.93
2019-01-03T03:18:29.529Z,8.13
2019-01-03T03:21:00.131Z,7.67
2019-01-03T03:23:30.723Z,7.60
2019-01-03T03:26:00.290Z,6.83
2019-01-03T03:28:29.135Z,8.63
2019-01-03T03:30:58.839Z,8.02
2019-01-03T03:33:28.223Z,7.95
2019-01-03T03:36:03.275Z,9.53
2019-01-03T03:38:37.568Z,7.78
2019-01-03T03:41:06.467Z,9.33
2019-01-03T03:43:38.222Z,8.83
2019-01-03T03:46:08.769Z,6.30
2019-01-03T03:48:39.383Z,8.70
2019-01-03T03:51:08.223Z,9.63
2019-01-03T03:53:42.550Z,9.07
2019-01-03T03:56:11.457Z,7.93
2019-01-03T03:58:41.075Z,6.73
2019-01-03T04:01:16.136Z,6.80
2019-01-03T04:03:49.707Z,7.40
2019-01-03T04:06:24.038Z,9.30
2019-01-03T04:08:55.613Z,8.03
2019-01-03T04:11:24.457Z,10.98
2019-01-03T04:13:54.258Z,8.30
2019-01-03T04:16:23.832Z,7.93
2019-01-03T04:18:54.129Z,7.83
2019-01-03T04:21:26.481Z,9.20
2019-01-03T04:23:55.343Z,10.20
2019-01-03T04:26:26.967Z,10.65
2019-01-03T04:29:01.453Z,10.20
2019-01-03T04:31:32.083Z,8.10
2019-01-03T04:34:02.581Z,9.38
2019-01-03T04:36:33.288Z,8.18
2019-01-03T04:39:02.220Z,7.97
2019-01-03T04:41:31.068Z,10.60
2019-01-03T04:43:59.997Z,10.70
2019-01-03T04:46:30.594Z,11.33
2019-01-03T04:49:05.149Z,8.33
2019-01-03T04:51:38.965Z,8.67
2019-01-03T04:54:11.530Z,10.80
2019-01-03T04:56:45.337Z,9.53
2019-01-03T04:59:14.222Z,12.33
2019-01-03T05:01:49.370Z,9.50
2019-01-03T05:04:23.631Z,9.57
2019-01-03T05:06:58.013Z,10.07
2019-01-03T05:09:29.763Z,9.50
2019-01-03T05:12:01.416Z,11.73
2019-01-03T05:14:30.263Z,9.05
2019-01-03T05:16:59.086Z,9.48
2019-01-03T05:19:27.989Z,12.40
2019-01-03T05:21:56.876Z,9.27
2019-01-03T05:24:26.692Z,11.97
2019-01-03T05:27:01.720Z,9.37
2019-01-03T05:29:32.362Z,8.75
2019-01-03T05:32:01.942Z,9.63
2019-01-03T05:34:36.275Z,10.68
2019-01-03T05:37:08.957Z,9.38
2019-01-03T05:39:43.371Z,9.07
2019-01-03T05:42:13.011Z,12.90
2019-01-03T05:44:47.429Z,8.13
2019-01-03T05:47:21.008Z,11.70
2019-01-03T05:49:53.623Z,9.23
2019-01-03T05:52:22.473Z,10.50
2019-01-03T05:54:56.754Z,10.53
2019-01-03T05:57:31.101Z,10.67
2019-01-03T06:00:06.138Z,11.47
2019-01-03T06:02:40.464Z,9.95
2019-01-03T06:05:10.062Z,10.65
2019-01-03T06:07:41.719Z,9.98
2019-01-03T06:10:11.524Z,8.63
2019-01-03T06:12:42.189Z,11.65
2019-01-03T06:15:16.487Z,8.10
2019-01-03T06:17:46.112Z,10.80
2019-01-03T06:20:16.687Z,12.13
2019-01-03T06:22:49.325Z,10.90
2019-01-03T06:25:18.166Z,9.73
2019-01-03T06:27:48.809Z,10.53
2019-01-03T06:30:18.384Z,9.40
2019-01-03T06:32:52.725Z,11.43
2019-01-03T06:35:26.318Z,11.10
2019-01-03T06:37:55.135Z,9.07
2019-01-03T06:40:29.387Z,11.30
2019-01-03T06:43:02.114Z,8.97
2019-01-03T06:45:34.914Z,10.63
2019-01-03T06:48:08.504Z,14.23
2019-01-03T06:50:38.104Z,10.57
2019-01-03T06:53:06.942Z,9.23
2019-01-03T06:55:38.792Z,10.40
2019-01-03T06:58:08.520Z,10.07
2019-01-03T07:00:39.164Z,12.03
2019-01-03T07:03:08.113Z,14.10
2019-01-03T07:05:36.978Z,13.83
2019-01-03T07:08:07.595Z,14.00
2019-01-03T07:10:36.513Z,15.93
2019-01-03T07:13:07.871Z,9.27
2019-01-03T07:15:42.269Z,13.37
2019-01-03T07:18:16.599Z,12.63
2019-01-03T07:20:51.113Z,13.33
2019-01-03T07:23:23.871Z,14.73
2019-01-03T07:25:58.515Z,15.00
2019-01-03T07:28:30.181Z,12.03
2019-01-03T07:31:00.935Z,13.37
2019-01-03T07:33:35.388Z,12.77
2019-01-03T07:36:05.109Z,15.77
2019-01-03T07:38:33.973Z,16.10
2019-01-03T07:41:09.060Z,13.93
2019-01-03T07:46:19.339Z,15.45
2019-01-03T07:48:48.942Z,16.53
2019-01-03T07:51:18.683Z,14.33
2019-01-03T07:53:53.003Z,12.75
2019-01-03T07:56:27.292Z,14.77
2019-01-03T07:58:58.981Z,26.20
2019-01-03T08:01:28.643Z,24.23
2019-01-03T08:04:02.932Z,25.57
2019-01-03T08:06:33.517Z,25.50
2019-01-03T08:09:04.323Z,44.67
2019-01-03T08:11:39.499Z,33.10
2019-01-03T08:14:13.909Z,38.42
2019-01-03T08:16:45.231Z,28.00
2019-01-03T08:19:19.551Z,22.47
2019-01-03T08:21:51.270Z,25.50
2019-01-03T08:24:20.974Z,26.48
2019-01-03T08:26:53.615Z,19.63
2019-01-03T08:29:24.314Z,15.47
2019-01-03T08:31:57.091Z,15.83
2019-01-03T08:34:31.966Z,15.77
2019-01-03T08:37:05.641Z,16.60
2019-01-03T08:39:40.149Z,11.67
2019-01-03T08:42:10.897Z,10.80
2019-01-03T08:44:39.783Z,13.20
2019-01-03T08:47:10.525Z,10.80
2019-01-03T08:49:45.009Z,10.67
2019-01-03T08:52:19.497Z,8.87
2019-01-03T08:54:54.164Z,10.83
2019-01-03T08:57:23.084Z,12.10
2019-01-03T08:59:57.429Z,10.30
2019-01-03T09:02:28.177Z,12.50
2019-01-03T09:05:00.912Z,12.70
2019-01-03T09:07:30.488Z,15.23
2019-01-03T09:10:03.262Z,16.90
2019-01-03T09:12:37.625Z,14.90
2019-01-03T09:15:09.261Z,13.52
2019-01-03T09:17:44.104Z,11.95
2019-01-03T09:20:15.417Z,13.73
2019-01-03T09:22:44.975Z,12.27
2019-01-03T09:25:19.393Z,12.70
2019-01-03T09:27:50.879Z,10.97
2019-01-03T09:30:25.412Z,15.53
2019-01-03T09:32:55.206Z,13.97
2019-01-03T09:35:29.773Z,14.17
2019-01-03T09:38:00.515Z,14.00
2019-01-03T09:40:35.569Z,16.67
2019-01-03T09:43:05.249Z,12.67
2019-01-03T09:45:43.798Z,14.17
2019-01-03T09:48:02.949Z,15.80
2019-01-03T09:50:33.168Z,13.13
2019-01-03T09:53:01.968Z,13.97
2019-01-03T09:55:30.816Z,16.97
2019-01-03T09:57:59.661Z,17.60
2019-01-03T10:00:28.563Z,14.83
2019-01-03T10:02:58.128Z,21.10
2019-01-03T10:05:27.707Z,19.97
2019-01-03T10:07:56.545Z,24.80
2019-01-03T10:10:26.535Z,19.50
2019-01-03T10:12:54.613Z,16.47
2019-01-03T10:15:23.451Z,13.60
2019-01-03T10:17:52.407Z,13.93
2019-01-03T10:20:21.242Z,15.87
2019-01-03T10:22:50.074Z,14.67
2019-01-03T10:25:19.694Z,17.90
2019-01-03T10:27:48.560Z,23.33
2019-01-03T10:30:17.404Z,18.27
2019-01-03T10:32:46.246Z,14.23
2019-01-03T10:35:15.843Z,14.97
2019-01-03T10:37:44.673Z,15.97
2019-01-03T10:40:13.511Z,16.10
2019-01-03T10:42:42.945Z,18.23
2019-01-03T10:45:11.783Z,13.00
2019-01-03T10:47:40.617Z,15.20
2019-01-03T10:50:10.207Z,13.13
2019-01-03T10:52:39.040Z,16.63
2019-01-03T10:55:08.639Z,16.08
2019-01-03T10:57:37.500Z,18.00
2019-01-03T11:00:07.097Z,15.07
2019-01-03T11:02:36.685Z,15.63
2019-01-03T11:05:05.521Z,17.63
2019-01-03T11:07:34.358Z,16.40
2019-01-03T11:10:03.198Z,16.60
2019-01-03T11:12:32.035Z,18.03
2019-01-03T11:15:00.859Z,15.63
2019-01-03T11:17:29.703Z,15.83
2019-01-03T11:19:58.547Z,16.23
2019-01-03T11:22:27.386Z,15.43
2019-01-03T11:24:56.236Z,17.47
2019-01-03T11:27:25.081Z,15.60
2019-01-03T11:29:53.982Z,17.30
2019-01-03T11:32:22.820Z,13.80
2019-01-03T11:34:53.201Z,17.62
2019-01-03T11:37:22.052Z,19.60
2019-01-03T11:39:50.901Z,17.65
2019-01-03T11:42:19.736Z,15.27
2019-01-03T11:44:48.587Z,17.13
2019-01-03T11:47:17.446Z,17.97
2019-01-03T11:49:46.281Z,19.00
2019-01-03T11:52:15.123Z,25.83
2019-01-03T11:54:43.979Z,23.90
2019-01-03T11:57:12.831Z,21.87
2019-01-03T11:59:41.696Z,27.37
2019-01-03T12:02:10.566Z,21.30
2019-01-03T12:04:40.029Z,19.42
2019-01-03T12:07:08.879Z,28.57
2019-01-03T12:09:38.483Z,17.37
2019-01-03T12:12:07.419Z,20.00
2019-01-03T12:14:36.180Z,18.17
2019-01-03T12:17:05.016Z,24.03
2019-01-03T12:19:33.849Z,19.33
2019-01-03T12:22:03.438Z,16.83
2019-01-03T12:24:33.033Z,18.17
2019-01-03T12:27:01.986Z,18.67
2019-01-03T12:29:30.778Z,16.90
2019-01-03T12:32:00.316Z,21.93
2019-01-03T12:34:29.151Z,21.27
2019-01-03T12:36:58.031Z,22.00
2019-01-03T12:39:26.829Z,20.47
2019-01-03T12:41:55.685Z,22.60
2019-01-03T12:44:25.259Z,42.37
2019-01-03T12:46:54.109Z,43.13
2019-01-03T12:49:23.698Z,23.13
2019-01-03T12:51:52.544Z,22.23
2019-01-03T12:54:21.383Z,19.13
2019-01-03T12:56:50.976Z,21.80
2019-01-03T12:59:19.844Z,23.87
2019-01-03T13:01:48.714Z,24.40
2019-01-03T13:04:17.516Z,21.87
2019-01-03T13:06:46.387Z,20.30
2019-01-03T13:09:15.217Z,24.33
2019-01-03T13:11:44.815Z,17.17
2019-01-03T13:14:13.654Z,24.97
2019-01-03T13:16:42.500Z,23.93
2019-01-03T13:19:11.358Z,22.70
2019-01-03T13:21:40.167Z,26.83
2019-01-03T13:24:09.612Z,26.63
2019-01-03T13:26:38.455Z,20.50
2019-01-03T13:29:07.301Z,23.23
2019-01-03T13:31:36.149Z,23.80
2019-01-03T13:34:04.997Z,20.80
2019-01-03T13:36:33.835Z,20.57
2019-01-03T13:39:03.466Z,21.70
2019-01-03T13:41:32.337Z,23.07
2019-01-03T13:44:01.166Z,25.98
2019-01-03T13:46:30.028Z,23.90
2019-01-03T13:48:58.878Z,28.33
2019-01-03T13:51:27.717Z,22.43
2019-01-03T13:53:56.542Z,24.60
2019-01-03T13:56:25.392Z,32.17
2019-01-03T13:58:54.247Z,27.63
2019-01-03T14:01:23.112Z,28.83
2019-01-03T14:03:51.925Z,29.10
2019-01-03T14:06:20.766Z,66.93
2019-01-03T14:08:49.608Z,45.27
2019-01-03T14:11:18.447Z,29.33
2019-01-03T14:13:47.297Z,26.80
2019-01-03T14:16:16.146Z,26.07
2019-01-03T14:18:45.006Z,41.53
2019-01-03T14:21:13.837Z,62.47
2019-01-03T14:23:42.660Z,38.00
2019-01-03T14:26:11.505Z,35.10
2019-01-03T14:28:41.105Z,37.93
2019-01-03T14:31:09.950Z,39.77
2019-01-03T14:33:38.797Z,43.97
2019-01-03T14:36:07.630Z,32.77
2019-01-03T14:38:36.464Z,31.23
2019-01-03T14:41:05.308Z,34.20
2019-01-03T14:43:34.153Z,33.37
2019-01-03T14:46:03.073Z,29.92
2019-01-03T14:48:31.876Z,27.92
2019-01-03T14:51:00.729Z,29.83
2019-01-03T14:53:29.575Z,24.60
2019-01-03T14:55:58.406Z,26.77
2019-01-03T14:58:27.271Z,24.80
2019-01-03T15:00:56.110Z,30.33
2019-01-03T15:03:24.942Z,35.13
2019-01-03T15:05:53.778Z,29.97
2019-01-03T15:08:23.490Z,25.03
2019-01-03T15:10:52.334Z,55.07
2019-01-03T15:13:21.223Z,39.53
2019-01-03T15:15:50.032Z,30.30
2019-01-03T15:18:19.616Z,30.43
2019-01-03T15:20:48.472Z,32.93
2019-01-03T15:23:17.320Z,29.90
2019-01-03T15:25:46.146Z,30.43
2019-01-03T15:28:14.988Z,26.23
2019-01-03T15:30:43.814Z,28.93
2019-01-03T15:33:12.646Z,24.13
2019-01-03T15:35:41.501Z,28.57
2019-01-03T15:38:10.358Z,29.53
2019-01-03T15:40:39.207Z,26.33
2019-01-03T15:43:08.042Z,25.90
2019-01-03T15:45:36.890Z,28.03
2019-01-03T15:48:05.719Z,35.22
2019-01-03T15:50:35.317Z,31.53
2019-01-03T15:53:04.153Z,31.77
2019-01-03T15:55:33.043Z,25.50
2019-01-03T15:58:01.858Z,27.73
2019-01-03T16:00:30.703Z,31.73
2019-01-03T16:03:03.209Z,27.50
2019-01-03T16:05:31.997Z,35.60
2019-01-03T16:08:00.910Z,29.07
2019-01-03T16:10:29.765Z,27.23
2019-01-03T16:12:58.612Z,34.40
2019-01-03T16:15:27.453Z,32.60
2019-01-03T16:17:56.290Z,29.17
2019-01-03T16:20:25.145Z,30.93
2019-01-03T16:22:53.995Z,35.63
2019-01-03T16:25:22.906Z,35.40
2019-01-03T16:27:51.686Z,39.60
2019-01-03T16:30:20.545Z,34.87
2019-01-03T16:32:49.453Z,27.83
2019-01-03T16:35:19.120Z,31.83
2019-01-03T16:37:47.920Z,29.97
2019-01-03T16:40:16.862Z,29.70
2019-01-03T16:42:45.694Z,29.55
2019-01-03T16:45:15.280Z,34.97
2019-01-03T16:47:44.124Z,28.57
2019-01-03T16:50:12.972Z,34.13
2019-01-03T16:52:41.826Z,38.40
2019-01-03T16:55:10.684Z,32.83
2019-01-03T16:57:39.540Z,32.17
2019-01-03T17:00:08.388Z,31.70
2019-01-03T17:02:37.219Z,28.13
2019-01-03T17:05:06.060Z,25.40
2019-01-03T17:07:34.909Z,29.53
2019-01-03T17:10:03.787Z,34.97
2019-01-03T17:12:32.624Z,32.70
2019-01-03T17:15:01.466Z,29.53
2019-01-03T17:17:30.307Z,40.60
2019-01-03T17:19:59.146Z,31.93
2019-01-03T17:22:28.011Z,33.10
2019-01-03T17:24:56.821Z,31.30
2019-01-03T17:27:25.707Z,37.23
2019-01-03T17:29:54.513Z,40.23
2019-01-03T17:32:23.387Z,52.23
2019-01-03T17:34:52.242Z,42.87
2019-01-03T17:37:21.071Z,37.63
2019-01-03T17:39:49.907Z,34.77
2019-01-03T17:42:18.757Z,33.90
2019-01-03T17:44:47.615Z,30.37
2019-01-03T17:47:16.445Z,34.75
2019-01-03T17:49:46.079Z,39.27
2019-01-03T17:52:14.935Z,35.90
2019-01-03T17:54:43.760Z,36.73
2019-01-03T17:57:12.641Z,45.23
2019-01-03T17:59:41.469Z,53.03
2019-01-03T18:02:10.308Z,45.55
2019-01-03T18:04:39.146Z,35.53
2019-01-03T18:07:07.977Z,29.03
2019-01-03T18:09:37.566Z,30.63
2019-01-03T18:12:06.417Z,28.77
2019-01-03T18:14:35.254Z,33.05
2019-01-03T18:17:04.847Z,29.40
2019-01-03T18:19:33.716Z,35.67
2019-01-03T18:22:02.577Z,33.05
2019-01-03T18:24:31.409Z,31.80
2019-01-03T18:27:00.261Z,33.83
2019-01-03T18:29:29.151Z,39.43
2019-01-03T18:31:58.757Z,33.43
2019-01-03T18:34:27.628Z,37.90
2019-01-03T18:36:56.473Z,32.10
2019-01-03T18:39:25.306Z,33.33
2019-01-03T18:41:54.139Z,31.20
2019-01-03T18:44:22.982Z,31.23
2019-01-03T18:46:51.825Z,30.27
2019-01-03T18:49:20.680Z,32.53
2019-01-03T18:51:49.527Z,34.00
2019-01-03T18:54:18.402Z,31.77
2019-01-03T18:56:47.267Z,36.67
2019-01-03T18:59:16.103Z,31.40
2019-01-03T19:01:44.971Z,32.87
2019-01-03T19:04:13.828Z,36.87
2019-01-03T19:06:42.669Z,31.60
2019-01-03T19:09:12.247Z,31.13
2019-01-03T19:11:41.099Z,32.43
2019-01-03T19:14:09.951Z,37.87
2019-01-03T19:16:38.786Z,35.10
2019-01-03T19:19:07.650Z,34.00
2019-01-03T19:21:36.509Z,37.03
2019-01-03T19:24:05.382Z,37.87
2019-01-03T19:26:34.246Z,35.80
2019-01-03T19:29:03.088Z,39.57
2019-01-03T19:31:32.769Z,37.97
2019-01-03T19:34:01.621Z,37.75
2019-01-03T19:36:30.462Z,35.33
2019-01-03T19:38:59.325Z,32.83
2019-01-03T19:41:28.167Z,34.63
2019-01-03T19:43:57.048Z,31.97
2019-01-03T19:46:25.914Z,33.92
2019-01-03T19:48:54.755Z,31.20
2019-01-03T19:51:23.621Z,36.22
2019-01-03T19:53:53.214Z,32.90
2019-01-03T19:56:22.803Z,37.40
2019-01-03T19:58:51.653Z,35.90
2019-01-03T20:01:20.516Z,32.50
2019-01-03T20:03:50.097Z,33.37
2019-01-03T20:06:19.539Z,35.70
2019-01-03T20:08:48.388Z,32.83
2019-01-03T20:11:17.267Z,31.57
2019-01-03T20:13:46.078Z,30.23
2019-01-03T20:16:14.983Z,32.37
2019-01-03T20:18:43.937Z,32.47
2019-01-03T20:21:12.798Z,35.47
2019-01-03T20:23:41.635Z,39.97
2019-01-03T20:26:11.208Z,34.00
2019-01-03T20:28:40.046Z,34.33
2019-01-03T20:31:08.949Z,39.93
2019-01-03T20:33:37.820Z,39.70
2019-01-03T20:36:06.677Z,45.77
2019-01-03T20:38:35.510Z,45.90
2019-01-03T20:41:05.213Z,44.50
2019-01-03T20:43:39.128Z,42.63
2019-01-03T20:46:02.925Z,40.23
2019-01-03T20:48:31.768Z,30.67
2019-01-03T20:51:00.674Z,32.10
2019-01-03T20:53:29.518Z,39.40
2019-01-03T20:55:58.412Z,42.03
2019-01-03T20:58:27.216Z,36.43
2019-01-03T21:00:56.863Z,33.20
2019-01-03T21:03:25.666Z,34.87
2019-01-03T21:05:54.499Z,39.30
2019-01-03T21:11:02.326Z,42.40
2019-01-03T21:13:39.342Z,36.30
2019-01-03T21:16:08.115Z,33.77
2019-01-03T21:18:36.977Z,33.13
2019-01-03T21:21:06.597Z,35.87
2019-01-03T21:23:36.188Z,34.03
2019-01-03T21:26:05.727Z,34.10
2019-01-03T21:28:34.678Z,32.70
2019-01-03T21:31:05.513Z,33.10
2019-01-03T21:33:35.409Z,37.60
2019-01-03T21:36:03.373Z,34.47
2019-01-03T21:38:32.207Z,35.17
2019-01-03T21:41:01.822Z,33.93
2019-01-03T21:43:30.686Z,31.90
2019-01-03T21:46:00.122Z,34.20
2019-01-03T21:48:29.013Z,36.80
2019-01-03T21:50:58.571Z,34.63
2019-01-03T21:53:27.406Z,37.83
2019-01-03T21:55:56.259Z,40.00
2019-01-03T21:58:25.102Z,39.60
2019-01-03T22:00:53.976Z,38.70
2019-01-03T22:03:22.842Z,44.07
2019-01-03T22:05:51.738Z,41.83
2019-01-03T22:08:21.362Z,35.47
2019-01-03T22:10:50.726Z,36.70
2019-01-03T22:13:19.615Z,36.97
2019-01-03T22:15:48.514Z,40.87
2019-01-03T22:18:17.346Z,33.23
2019-01-03T22:20:46.197Z,35.23
2019-01-03T22:23:15.794Z,33.60
2019-01-03T22:25:44.683Z,36.37
2019-01-03T22:28:13.564Z,37.43
2019-01-03T22:30:42.374Z,35.30
2019-01-03T22:33:11.966Z,33.13
2019-01-03T22:35:40.859Z,29.60
2019-01-03T22:38:10.465Z,30.10
2019-01-03T22:40:40.118Z,30.80
2019-01-03T22:43:08.931Z,27.97
2019-01-03T22:45:37.773Z,29.67
2019-01-03T22:48:06.611Z,29.77
2019-01-03T22:50:35.464Z,31.03
2019-01-03T22:53:04.523Z,33.63
2019-01-03T22:55:33.372Z,34.93
2019-01-03T22:58:02.215Z,31.92
2019-01-03T23:00:32.660Z,31.07
2019-01-03T23:03:02.245Z,30.83
2019-01-03T23:05:31.092Z,32.33
2019-01-03T23:07:59.938Z,32.78
2019-01-03T23:10:28.800Z,37.23
2019-01-03T23:12:57.633Z,48.20
2019-01-03T23:15:26.498Z,40.60
2019-01-03T23:17:56.347Z,34.80
2019-01-03T23:20:25.169Z,32.40
2019-01-03T23:22:54.010Z,28.63
2019-01-03T23:25:22.868Z,26.97
2019-01-03T23:27:52.446Z,28.13
2019-01-03T23:30:21.291Z,30.90
2019-01-03T23:32:50.141Z,32.30
2019-01-03T23:35:18.979Z,32.07
2019-01-03T23:37:47.843Z,30.00
2019-01-03T23:40:16.634Z,30.00
2019-01-03T23:42:45.480Z,30.30
2019-01-03T23:45:16.281Z,29.73
2019-01-03T23:47:45.123Z,29.50
2019-01-03T23:50:15.495Z,30.73
2019-01-03T23:52:44.417Z,30.33
2019-01-03T23:55:13.188Z,28.23
2019-01-03T23:57:42.019Z,28.43
